createdAt,value
2023-04-07T00:03:25.094Z,-0.57
2023-04-07T00:07:26.518Z,-0.65
2023-04-07T00:11:27.925Z,-0.59
2023-04-07T00:15:30.694Z,-0.60
2023-04-07T00:19:32.090Z,-0.82
2023-04-07T00:23:33.430Z,-0.87
2023-04-07T00:27:34.853Z,-0.85
2023-04-07T00:31:37.647Z,-0.77
2023-04-07T00:35:39.073Z,-0.80
2023-04-07T00:39:40.433Z,-0.97
2023-04-07T00:43:41.762Z,-1.03
2023-04-07T00:47:44.555Z,-0.97
2023-04-07T00:51:46.400Z,-0.97
2023-04-07T00:55:47.824Z,-1.01
2023-04-07T00:59:49.351Z,-1.04
2023-04-07T01:03:56.540Z,-1.09
2023-04-07T01:08:00.837Z,-1.13
2023-04-07T01:12:05.477Z,-1.10
2023-04-07T01:16:09.689Z,-1.19
2023-04-07T01:20:14.046Z,-1.18
2023-04-07T01:24:26.978Z,-1.24
2023-04-07T01:28:44.923Z,-1.20
2023-04-07T01:32:50.661Z,-1.26
2023-04-07T01:36:52.570Z,-1.26
2023-04-07T01:40:55.136Z,-1.32
2023-04-07T01:44:57.484Z,-1.31
2023-04-07T01:49:00.722Z,-1.22
2023-04-07T01:53:03.550Z,-1.36
2023-04-07T01:57:04.948Z,-1.34
2023-04-07T02:01:06.370Z,-1.32
2023-04-07T02:05:12.589Z,-1.33
2023-04-07T02:09:15.753Z,-1.42
2023-04-07T02:13:19.021Z,-1.48
2023-04-07T02:17:21.444Z,-1.53
2023-04-07T02:21:25.151Z,-1.49
2023-04-07T02:25:27.092Z,-1.55
2023-04-07T02:29:28.464Z,-1.55
2023-04-07T02:33:29.860Z,-1.59
2023-04-07T02:37:32.561Z,-1.61
2023-04-07T02:41:33.895Z,-1.63
2023-04-07T02:45:35.249Z,-1.74
2023-04-07T02:49:36.607Z,-1.72
2023-04-07T02:53:39.356Z,-1.74
2023-04-07T02:57:40.770Z,-1.77
2023-04-07T03:01:42.211Z,-1.80
2023-04-07T03:05:43.803Z,-1.74
2023-04-07T03:09:46.532Z,-1.94
2023-04-07T03:13:47.916Z,-1.90
2023-04-07T03:17:49.307Z,-1.94
2023-04-07T03:21:50.843Z,-1.90
2023-04-07T03:25:53.576Z,-1.91
2023-04-07T03:29:54.899Z,-1.95
2023-04-07T03:33:56.255Z,-1.94
2023-04-07T03:37:57.655Z,-1.88
2023-04-07T03:42:00.360Z,-1.94
2023-04-07T03:46:01.769Z,-1.98
2023-04-07T03:50:03.360Z,-1.97
2023-04-07T03:54:04.883Z,-1.81
2023-04-07T03:58:07.685Z,-2.13
2023-04-07T04:02:09.309Z,-2.16
2023-04-07T04:06:10.801Z,-2.02
2023-04-07T04:10:12.141Z,-1.98
2023-04-07T04:14:14.898Z,-2.19
2023-04-07T04:18:16.289Z,-2.03
2023-04-07T04:22:17.802Z,-2.26
2023-04-07T04:26:19.173Z,-2.28
2023-04-07T04:30:21.908Z,-2.19
2023-04-07T04:34:23.324Z,-2.41
2023-04-07T04:38:24.746Z,-2.38
2023-04-07T04:42:26.106Z,-2.40
2023-04-07T04:46:28.871Z,-2.52
2023-04-07T04:50:30.264Z,-2.55
2023-04-07T04:54:31.650Z,-2.42
2023-04-07T04:58:33.049Z,-2.38
2023-04-07T05:02:36.291Z,-2.39
2023-04-07T05:06:37.837Z,-2.29
2023-04-07T05:10:39.247Z,-2.34
2023-04-07T05:14:40.679Z,-2.29
2023-04-07T05:18:43.405Z,-2.11
2023-04-07T05:22:44.780Z,-2.27
2023-04-07T05:26:46.160Z,-2.21
2023-04-07T05:30:47.909Z,-2.10
2023-04-07T05:34:50.673Z,-1.92
2023-04-07T05:38:52.075Z,-1.85
2023-04-07T05:42:53.450Z,-1.54
2023-04-07T05:46:54.818Z,-1.31
2023-04-07T05:50:57.563Z,-0.87
2023-04-07T05:54:59.094Z,-0.69
2023-04-07T05:59:00.501Z,-0.33
2023-04-07T06:03:02.032Z,-0.03
2023-04-07T06:07:05.137Z,0.28
2023-04-07T06:11:06.528Z,0.95
2023-04-07T06:15:08.143Z,2.21
2023-04-07T06:19:09.545Z,3.28
2023-04-07T06:23:12.314Z,3.95
2023-04-07T06:27:13.675Z,3.73
2023-04-07T06:31:15.189Z,3.64
2023-04-07T06:35:16.635Z,3.62
2023-04-07T06:39:19.445Z,3.50
2023-04-07T06:43:20.840Z,3.72
2023-04-07T06:47:22.192Z,3.85
2023-04-07T06:51:23.588Z,3.99
2023-04-07T06:55:26.320Z,4.28
2023-04-07T06:59:27.703Z,4.41
2023-04-07T07:03:29.239Z,4.55
2023-04-07T07:07:30.994Z,4.78
2023-04-07T07:11:33.828Z,5.21
2023-04-07T07:15:35.271Z,5.60
2023-04-07T07:19:36.632Z,5.60
2023-04-07T07:23:38.002Z,5.83
2023-04-07T07:27:40.719Z,6.01
2023-04-07T07:31:42.308Z,6.11
2023-04-07T07:35:43.749Z,6.28
2023-04-07T07:39:45.139Z,6.25
2023-04-07T07:43:48.364Z,6.45
2023-04-07T07:47:49.895Z,6.61
2023-04-07T07:51:51.296Z,7.01
2023-04-07T07:55:52.735Z,7.41
2023-04-07T07:59:55.490Z,7.58
2023-04-07T08:03:57.166Z,7.94
2023-04-07T08:07:58.646Z,8.11
2023-04-07T08:12:00.046Z,8.20
2023-04-07T08:16:02.832Z,8.23
2023-04-07T08:20:04.669Z,8.48
2023-04-07T08:24:06.190Z,8.74
2023-04-07T08:28:07.550Z,9.23
2023-04-07T08:32:10.314Z,9.58
2023-04-07T08:36:11.702Z,9.53
2023-04-07T08:40:13.144Z,9.21
2023-04-07T08:44:15.037Z,9.46
2023-04-07T08:48:18.152Z,9.71
2023-04-07T08:52:22.432Z,10.11
2023-04-07T08:56:24.276Z,10.28
2023-04-07T09:00:26.118Z,10.52
2023-04-07T09:04:29.138Z,10.69
2023-04-07T09:08:30.495Z,11.05
2023-04-07T09:12:32.495Z,11.34
2023-04-07T09:16:33.977Z,10.95
2023-04-07T09:20:54.237Z,11.08
2023-04-07T09:25:09.122Z,11.31
2023-04-07T09:29:18.175Z,11.48
2023-04-07T09:33:26.509Z,11.74
2023-04-07T09:37:27.876Z,12.08
2023-04-07T09:41:30.651Z,11.67
2023-04-07T09:45:35.173Z,11.33
2023-04-07T09:49:48.475Z,11.48
2023-04-07T09:53:50.824Z,11.78
2023-04-07T09:57:53.872Z,12.07
2023-04-07T10:01:56.850Z,12.33
2023-04-07T10:05:59.771Z,12.14
2023-04-07T10:10:01.153Z,12.00
2023-04-07T10:14:04.020Z,11.57
2023-04-07T10:18:07.274Z,11.75
2023-04-07T10:22:08.893Z,11.55
2023-04-07T10:26:11.097Z,11.72
2023-04-07T10:30:15.505Z,11.98
2023-04-07T10:34:16.858Z,12.24
2023-04-07T10:38:18.244Z,12.22
2023-04-07T10:42:46.682Z,12.25
2023-04-07T10:47:04.623Z,12.06
2023-04-07T10:51:15.548Z,12.35
2023-04-07T10:55:33.384Z,12.42
2023-04-07T10:59:34.798Z,12.46
2023-04-07T11:03:38.313Z,12.57
2023-04-07T11:07:43.814Z,12.73
2023-04-07T11:11:45.222Z,12.83
2023-04-07T11:15:49.798Z,12.85
2023-04-07T11:19:52.588Z,12.67
2023-04-07T11:23:53.964Z,12.97
2023-04-07T11:27:55.322Z,12.43
2023-04-07T11:31:58.156Z,12.53
2023-04-07T11:36:02.155Z,12.73
2023-04-07T11:40:03.810Z,12.83
2023-04-07T11:44:08.967Z,12.87
2023-04-07T11:48:25.209Z,12.80
2023-04-07T11:52:28.018Z,12.86
2023-04-07T11:56:29.392Z,12.82
2023-04-07T12:00:30.932Z,13.05
2023-04-07T12:04:32.345Z,12.98
2023-04-07T12:08:38.435Z,12.94
2023-04-07T12:12:39.787Z,12.78
2023-04-07T12:16:41.229Z,12.86
2023-04-07T12:20:42.588Z,12.87
2023-04-07T12:24:45.703Z,12.97
2023-04-07T12:28:47.421Z,12.96
2023-04-07T12:32:48.835Z,12.81
2023-04-07T12:36:50.235Z,12.85
2023-04-07T12:40:52.964Z,12.83
2023-04-07T12:44:54.366Z,12.66
2023-04-07T12:48:55.741Z,12.69
2023-04-07T12:52:57.313Z,12.56
2023-04-07T12:57:00.062Z,12.40
2023-04-07T13:01:01.488Z,12.47
2023-04-07T13:05:03.111Z,12.53
2023-04-07T13:09:04.506Z,12.29
2023-04-07T13:13:07.259Z,12.49
2023-04-07T13:17:09.118Z,12.60
2023-04-07T13:21:42.722Z,12.71
2023-04-07T13:25:31.956Z,12.90
2023-04-07T13:29:34.712Z,12.93
2023-04-07T13:33:36.324Z,13.16
2023-04-07T13:37:37.713Z,13.15
2023-04-07T13:41:39.045Z,13.37
2023-04-07T13:45:41.925Z,13.47
2023-04-07T13:49:43.300Z,13.38
2023-04-07T13:53:45.136Z,13.21
2023-04-07T13:57:46.512Z,13.55
2023-04-07T14:01:49.322Z,13.90
2023-04-07T14:05:50.696Z,14.06
2023-04-07T14:09:52.099Z,14.26
2023-04-07T14:13:55.519Z,14.15
2023-04-07T14:17:58.329Z,14.09
2023-04-07T14:21:59.702Z,14.37
2023-04-07T14:26:01.085Z,14.75
2023-04-07T14:30:02.546Z,15.05
2023-04-07T14:34:05.354Z,15.22
2023-04-07T14:38:06.766Z,15.09
2023-04-07T14:42:08.248Z,15.00
2023-04-07T14:46:09.681Z,14.90
2023-04-07T14:50:12.560Z,14.87
2023-04-07T14:54:14.011Z,14.77
2023-04-07T14:58:15.420Z,14.75
2023-04-07T15:02:16.816Z,14.48
2023-04-07T15:06:19.675Z,14.34
2023-04-07T15:10:21.100Z,14.38
2023-04-07T15:14:22.515Z,14.29
2023-04-07T15:18:23.943Z,14.13
2023-04-07T15:22:26.729Z,14.18
2023-04-07T15:26:28.122Z,14.30
2023-04-07T15:30:29.526Z,14.34
2023-04-07T15:34:30.904Z,14.26
2023-04-07T15:38:33.874Z,14.25
2023-04-07T15:42:35.236Z,14.26
2023-04-07T15:46:36.674Z,14.47
2023-04-07T15:50:38.137Z,14.34
2023-04-07T15:54:40.869Z,14.03
2023-04-07T15:58:42.450Z,14.30
2023-04-07T16:02:44.112Z,14.35
2023-04-07T16:06:45.568Z,14.26
2023-04-07T16:10:48.340Z,14.24
2023-04-07T16:14:50.038Z,14.18
2023-04-07T16:18:51.404Z,14.07
2023-04-07T16:22:52.841Z,13.99
2023-04-07T16:26:55.600Z,13.91
2023-04-07T16:30:57.028Z,13.88
2023-04-07T16:34:58.436Z,13.85
2023-04-07T16:38:59.783Z,13.72
2023-04-07T16:43:04.491Z,13.65
2023-04-07T16:47:05.882Z,13.65
2023-04-07T16:51:07.249Z,13.41
2023-04-07T16:55:09.052Z,13.35
2023-04-07T16:59:11.783Z,13.23
2023-04-07T17:03:13.410Z,13.18
2023-04-07T17:07:15.103Z,13.08
2023-04-07T17:11:16.484Z,13.02
2023-04-07T17:15:19.304Z,13.12
2023-04-07T17:19:20.658Z,12.67
2023-04-07T17:23:22.049Z,12.47
2023-04-07T17:27:23.425Z,11.91
2023-04-07T17:31:26.251Z,11.53
2023-04-07T17:35:27.765Z,11.06
2023-04-07T17:39:29.108Z,10.58
2023-04-07T17:43:30.676Z,10.18
2023-04-07T17:47:33.512Z,9.65
2023-04-07T17:51:34.951Z,9.20
2023-04-07T17:55:36.385Z,8.89
2023-04-07T17:59:37.738Z,8.57
2023-04-07T18:03:40.598Z,8.29
2023-04-07T18:07:42.005Z,8.05
2023-04-07T18:11:43.363Z,7.43
2023-04-07T18:15:44.734Z,7.28
2023-04-07T18:19:47.496Z,6.90
2023-04-07T18:23:49.387Z,6.75
2023-04-07T18:27:50.983Z,6.71
2023-04-07T18:31:52.456Z,6.64
2023-04-07T18:35:55.311Z,6.27
2023-04-07T18:39:56.752Z,6.12
2023-04-07T18:43:58.495Z,5.79
2023-04-07T18:47:59.984Z,5.75
2023-04-07T18:52:02.911Z,5.67
2023-04-07T18:56:04.274Z,5.49
2023-04-07T19:00:06.338Z,5.14
2023-04-07T19:04:08.013Z,4.93
2023-04-07T19:08:10.797Z,5.00
2023-04-07T19:12:12.170Z,4.92
2023-04-07T19:16:13.561Z,4.80
2023-04-07T19:20:15.278Z,4.69
2023-04-07T19:24:18.043Z,4.48
2023-04-07T19:28:19.801Z,4.42
2023-04-07T19:32:21.194Z,4.19
2023-04-07T19:36:22.591Z,4.03
2023-04-07T19:40:25.631Z,4.04
2023-04-07T19:44:27.131Z,4.08
2023-04-07T19:48:28.486Z,4.00
2023-04-07T19:52:29.912Z,3.93
2023-04-07T19:56:32.637Z,3.65
2023-04-07T20:00:34.340Z,3.60
2023-04-07T20:04:35.787Z,3.72
2023-04-07T20:08:37.220Z,3.87
2023-04-07T20:12:39.951Z,3.62
2023-04-07T20:16:41.397Z,3.66
2023-04-07T20:20:42.791Z,3.72
2023-04-07T20:24:44.166Z,3.73
2023-04-07T20:28:46.967Z,3.72
2023-04-07T20:32:48.577Z,3.70
2023-04-07T20:36:49.939Z,3.71
2023-04-07T20:40:51.331Z,3.68
2023-04-07T20:44:54.078Z,3.75
2023-04-07T20:48:55.523Z,3.81
2023-04-07T20:52:56.861Z,3.89
2023-04-07T20:56:58.434Z,4.05
2023-04-07T21:01:01.386Z,3.91
2023-04-07T21:05:03.008Z,3.90
2023-04-07T21:09:04.384Z,3.84
2023-04-07T21:13:05.734Z,3.91
2023-04-07T21:17:08.478Z,4.06
2023-04-07T21:21:09.908Z,4.03
2023-04-07T21:25:11.285Z,3.99
2023-04-07T21:29:12.711Z,4.13
2023-04-07T21:33:15.418Z,4.08
2023-04-07T21:37:16.774Z,4.16
2023-04-07T21:41:18.136Z,4.15
2023-04-07T21:45:19.590Z,4.08
2023-04-07T21:49:22.424Z,4.37
2023-04-07T21:53:23.894Z,4.24
2023-04-07T21:57:25.305Z,4.16
2023-04-07T22:01:26.719Z,4.23
2023-04-07T22:05:29.506Z,4.30
2023-04-07T22:09:30.895Z,4.38
2023-04-07T22:13:32.236Z,4.41
2023-04-07T22:17:33.864Z,4.35
2023-04-07T22:21:36.647Z,4.41
2023-04-07T22:25:38.036Z,4.36
2023-04-07T22:29:39.413Z,4.36
2023-04-07T22:33:40.836Z,4.38
2023-04-07T22:37:43.625Z,4.45
2023-04-07T22:41:45.016Z,4.46
2023-04-07T22:45:46.375Z,4.53
2023-04-07T22:49:47.774Z,4.62
2023-04-07T22:53:50.496Z,4.51
2023-04-07T22:57:51.893Z,4.53
2023-04-07T23:01:54.208Z,4.56
2023-04-07T23:05:56.513Z,4.63
2023-04-07T23:09:59.303Z,4.55
2023-04-07T23:14:01.159Z,4.51
2023-04-07T23:18:02.580Z,4.51
2023-04-07T23:22:04.180Z,4.49
2023-04-07T23:26:06.972Z,4.58
2023-04-07T23:30:08.936Z,4.58
2023-04-07T23:34:10.275Z,4.54
2023-04-07T23:38:11.642Z,4.58
2023-04-07T23:42:15.393Z,4.69
2023-04-07T23:46:16.857Z,4.53
2023-04-07T23:50:18.252Z,4.49
2023-04-07T23:54:19.599Z,4.49
2023-04-07T23:58:22.331Z,4.47
